sensor_id;sensor_type;location;lat;lon;timestamp;pressure;altitude;pressure_sealevel;temperature;humidity
69622;BME280;56841;55.964;37.674;2023-06-05T00:02:14;99870.44;;;10.44;61.75
69622;BME280;56841;55.964;37.674;2023-06-05T00:04:41;99866.47;;;10.40;61.90
69622;BME280;56841;55.964;37.674;2023-06-05T00:07:09;99867.94;;;10.42;61.81
69622;BME280;56841;55.964;37.674;2023-06-05T00:09:34;99867.13;;;10.42;61.81
69622;BME280;56841;55.964;37.674;2023-06-05T00:12:00;99862.16;;;10.39;61.97
69622;BME280;56841;55.964;37.674;2023-06-05T00:14:26;99866.97;;;10.43;61.88
69622;BME280;56841;55.964;37.674;2023-06-05T00:16:52;99865.66;;;10.48;61.64
69622;BME280;56841;55.964;37.674;2023-06-05T00:19:18;99850.81;;;10.47;61.53
69622;BME280;56841;55.964;37.674;2023-06-05T00:21:43;99852.78;;;10.44;61.52
69622;BME280;56841;55.964;37.674;2023-06-05T00:24:09;99855.94;;;10.48;61.56
69622;BME280;56841;55.964;37.674;2023-06-05T00:26:35;99856.44;;;10.52;61.43
69622;BME280;56841;55.964;37.674;2023-06-05T00:29:00;99846.69;;;10.52;61.77
69622;BME280;56841;55.964;37.674;2023-06-05T00:31:26;99851.81;;;10.54;61.61
69622;BME280;56841;55.964;37.674;2023-06-05T00:33:53;99860.06;;;10.59;61.65
69622;BME280;56841;55.964;37.674;2023-06-05T00:36:18;99851.19;;;10.60;61.63
69622;BME280;56841;55.964;37.674;2023-06-05T00:38:49;99852.84;;;10.61;61.77
69622;BME280;56841;55.964;37.674;2023-06-05T00:41:15;99854.97;;;10.57;61.93
69622;BME280;56841;55.964;37.674;2023-06-05T00:43:41;99851.84;;;10.62;61.90
69622;BME280;56841;55.964;37.674;2023-06-05T00:46:07;99861.75;;;10.60;62.22
69622;BME280;56841;55.964;37.674;2023-06-05T00:48:33;99859.63;;;10.63;62.13
69622;BME280;56841;55.964;37.674;2023-06-05T00:51:00;99866.69;;;10.63;62.27
69622;BME280;56841;55.964;37.674;2023-06-05T00:53:26;99860.25;;;10.65;62.35
69622;BME280;56841;55.964;37.674;2023-06-05T00:55:53;99857.78;;;10.64;62.39
69622;BME280;56841;55.964;37.674;2023-06-05T00:58:19;99858.63;;;10.64;62.54
69622;BME280;56841;55.964;37.674;2023-06-05T01:00:45;99860.94;;;10.67;62.43
69622;BME280;56841;55.964;37.674;2023-06-05T01:03:16;99860.75;;;10.69;62.41
69622;BME280;56841;55.964;37.674;2023-06-05T01:05:42;99861.75;;;10.68;62.61
69622;BME280;56841;55.964;37.674;2023-06-05T01:08:09;99869.00;;;10.66;62.68
69622;BME280;56841;55.964;37.674;2023-06-05T01:10:38;99869.00;;;10.66;62.56
69622;BME280;56841;55.964;37.674;2023-06-05T01:13:25;99861.91;;;10.66;62.38
69622;BME280;56841;55.964;37.674;2023-06-05T01:15:52;99857.94;;;10.62;62.28
69622;BME280;56841;55.964;37.674;2023-06-05T01:18:21;99855.47;;;10.69;62.37
69622;BME280;56841;55.964;37.674;2023-06-05T01:20:48;99855.34;;;10.71;62.03
69622;BME280;56841;55.964;37.674;2023-06-05T01:23:14;99854.16;;;10.73;61.64
69622;BME280;56841;55.964;37.674;2023-06-05T01:25:40;99852.50;;;10.72;61.72
69622;BME280;56841;55.964;37.674;2023-06-05T01:30:34;99852.38;;;10.74;61.62
69622;BME280;56841;55.964;37.674;2023-06-05T01:33:08;99859.13;;;10.76;61.41
69622;BME280;56841;55.964;37.674;2023-06-05T01:35:38;99858.78;;;10.71;61.71
69622;BME280;56841;55.964;37.674;2023-06-05T01:38:06;99854.00;;;10.75;61.75
69622;BME280;56841;55.964;37.674;2023-06-05T01:40:35;99856.78;;;10.73;61.73
69622;BME280;56841;55.964;37.674;2023-06-05T01:43:03;99865.56;;;10.74;61.92
69622;BME280;56841;55.964;37.674;2023-06-05T01:45:32;99860.63;;;10.71;61.91
69622;BME280;56841;55.964;37.674;2023-06-05T01:47:58;99862.06;;;10.73;62.08
69622;BME280;56841;55.964;37.674;2023-06-05T01:50:24;99867.03;;;10.76;61.97
69622;BME280;56841;55.964;37.674;2023-06-05T01:52:50;99871.81;;;10.73;61.91
69622;BME280;56841;55.964;37.674;2023-06-05T01:55:20;99867.03;;;10.76;61.95
69622;BME280;56841;55.964;37.674;2023-06-05T01:57:50;99870.00;;;10.73;62.36
69622;BME280;56841;55.964;37.674;2023-06-05T02:00:16;99876.28;;;10.72;62.60
69622;BME280;56841;55.964;37.674;2023-06-05T02:02:47;99875.97;;;10.75;62.43
69622;BME280;56841;55.964;37.674;2023-06-05T02:05:14;99885.38;;;10.78;62.44
69622;BME280;56841;55.964;37.674;2023-06-05T02:07:45;99884.88;;;10.74;62.63
69622;BME280;56841;55.964;37.674;2023-06-05T02:10:19;99879.75;;;10.73;62.64
69622;BME280;56841;55.964;37.674;2023-06-05T02:12:45;99875.13;;;10.75;62.81
69622;BME280;56841;55.964;37.674;2023-06-05T02:15:11;99882.25;;;10.82;62.63
69622;BME280;56841;55.964;37.674;2023-06-05T02:17:44;99868.91;;;10.84;62.66
69622;BME280;56841;55.964;37.674;2023-06-05T02:20:16;99877.97;;;10.89;62.97
69622;BME280;56841;55.964;37.674;2023-06-05T02:22:42;99875.31;;;10.89;62.66
69622;BME280;56841;55.964;37.674;2023-06-05T02:25:09;99874.31;;;10.90;62.95
69622;BME280;56841;55.964;37.674;2023-06-05T02:27:38;99875.31;;;10.89;62.82
69622;BME280;56841;55.964;37.674;2023-06-05T02:30:05;99879.47;;;10.84;63.19
69622;BME280;56841;55.964;37.674;2023-06-05T02:32:31;99882.25;;;10.90;63.34
69622;BME280;56841;55.964;37.674;2023-06-05T02:34:57;99890.53;;;10.87;63.32
69622;BME280;56841;55.964;37.674;2023-06-05T02:37:24;99893.16;;;10.96;63.59
69622;BME280;56841;55.964;37.674;2023-06-05T02:39:50;99889.34;;;10.90;63.76
69622;BME280;56841;55.964;37.674;2023-06-05T02:42:16;99888.69;;;10.96;64.24
69622;BME280;56841;55.964;37.674;2023-06-05T02:44:44;99890.19;;;11.07;63.78
69622;BME280;56841;55.964;37.674;2023-06-05T02:47:11;99893.66;;;11.07;63.78
69622;BME280;56841;55.964;37.674;2023-06-05T02:49:37;99897.81;;;11.10;63.86
69622;BME280;56841;55.964;37.674;2023-06-05T02:52:03;99904.22;;;11.07;64.24
69622;BME280;56841;55.964;37.674;2023-06-05T02:54:29;99904.72;;;11.11;63.91
69622;BME280;56841;55.964;37.674;2023-06-05T02:56:57;99899.44;;;11.03;64.09
69622;BME280;56841;55.964;37.674;2023-06-05T02:59:26;99893.66;;;10.99;64.40
69622;BME280;56841;55.964;37.674;2023-06-05T03:01:53;99897.31;;;11.06;64.52
69622;BME280;56841;55.964;37.674;2023-06-05T03:04:20;99902.63;;;11.14;64.13
69622;BME280;56841;55.964;37.674;2023-06-05T03:06:52;99899.47;;;11.27;64.22
69622;BME280;56841;55.964;37.674;2023-06-05T03:09:19;99884.94;;;11.39;63.83
69622;BME280;56841;55.964;37.674;2023-06-05T03:11:45;99897.28;;;11.55;63.46
69622;BME280;56841;55.964;37.674;2023-06-05T03:14:11;99896.66;;;11.53;63.39
69622;BME280;56841;55.964;37.674;2023-06-05T03:16:38;99893.97;;;11.61;63.48
69622;BME280;56841;55.964;37.674;2023-06-05T03:19:08;99889.34;;;11.55;63.48
69622;BME280;56841;55.964;37.674;2023-06-05T03:21:35;99890.69;;;11.59;63.64
69622;BME280;56841;55.964;37.674;2023-06-05T03:24:04;99893.34;;;11.59;63.73
69622;BME280;56841;55.964;37.674;2023-06-05T03:26:31;99886.72;;;11.55;64.05
69622;BME280;56841;55.964;37.674;2023-06-05T03:28:58;99891.34;;;11.53;64.15
69622;BME280;56841;55.964;37.674;2023-06-05T03:31:27;99895.50;;;11.56;64.31
69622;BME280;56841;55.964;37.674;2023-06-05T03:33:52;99900.78;;;11.56;64.42
69622;BME280;56841;55.964;37.674;2023-06-05T03:36:19;99892.50;;;11.51;64.77
69622;BME280;56841;55.964;37.674;2023-06-05T03:38:47;99893.00;;;11.54;64.99
69622;BME280;56841;55.964;37.674;2023-06-05T03:41:13;99890.22;;;11.56;64.89
69622;BME280;56841;55.964;37.674;2023-06-05T03:43:39;99892.38;;;11.52;65.02
69622;BME280;56841;55.964;37.674;2023-06-05T03:46:04;99896.66;;;11.53;65.20
69622;BME280;56841;55.964;37.674;2023-06-05T03:48:31;99906.06;;;11.48;66.53
69622;BME280;56841;55.964;37.674;2023-06-05T03:50:57;99902.63;;;11.39;67.30
69622;BME280;56841;55.964;37.674;2023-06-05T03:53:23;99899.81;;;11.32;68.50
69622;BME280;56841;55.964;37.674;2023-06-05T03:55:50;99901.09;;;11.20;69.95
69622;BME280;56841;55.964;37.674;2023-06-05T03:58:23;99893.34;;;11.19;71.52
69622;BME280;56841;55.964;37.674;2023-06-05T04:00:53;99898.16;;;11.15;70.99
69622;BME280;56841;55.964;37.674;2023-06-05T04:03:19;99896.16;;;11.25;70.38
69622;BME280;56841;55.964;37.674;2023-06-05T04:05:48;99904.28;;;11.32;71.13
69622;BME280;56841;55.964;37.674;2023-06-05T04:08:14;99902.13;;;11.35;70.69
69622;BME280;56841;55.964;37.674;2023-06-05T04:10:40;99903.44;;;11.39;69.84
69622;BME280;56841;55.964;37.674;2023-06-05T04:13:05;99902.94;;;11.44;70.11
69622;BME280;56841;55.964;37.674;2023-06-05T04:15:33;99903.59;;;11.54;69.53
69622;BME280;56841;55.964;37.674;2023-06-05T04:18:00;99892.31;;;11.69;69.06
69622;BME280;56841;55.964;37.674;2023-06-05T04:20:26;99899.78;;;11.73;69.02
69622;BME280;56841;55.964;37.674;2023-06-05T04:22:54;99899.75;;;11.81;68.98
69622;BME280;56841;55.964;37.674;2023-06-05T04:25:20;99899.91;;;11.96;68.96
69622;BME280;56841;55.964;37.674;2023-06-05T04:27:49;99894.94;;;12.01;68.68
69622;BME280;56841;55.964;37.674;2023-06-05T04:30:16;99892.91;;;12.12;68.34
69622;BME280;56841;55.964;37.674;2023-06-05T04:32:42;99897.06;;;12.14;68.54
69622;BME280;56841;55.964;37.674;2023-06-05T04:35:09;99903.31;;;12.21;68.88
69622;BME280;56841;55.964;37.674;2023-06-05T04:37:35;99900.28;;;12.32;69.38
69622;BME280;56841;55.964;37.674;2023-06-05T04:40:02;99895.66;;;12.35;68.31
69622;BME280;56841;55.964;37.674;2023-06-05T04:42:32;99910.00;;;12.40;68.48
69622;BME280;56841;55.964;37.674;2023-06-05T04:45:01;99900.22;;;12.41;68.33
69622;BME280;56841;55.964;37.674;2023-06-05T04:47:30;99892.66;;;12.38;68.47
69622;BME280;56841;55.964;37.674;2023-06-05T04:50:01;99893.69;;;12.20;68.93
69622;BME280;56841;55.964;37.674;2023-06-05T04:52:33;99901.19;;;12.08;69.56
69622;BME280;56841;55.964;37.674;2023-06-05T04:55:01;99898.25;;;12.03;71.65
69622;BME280;56841;55.964;37.674;2023-06-05T04:57:29;99897.91;;;11.98;71.36
69622;BME280;56841;55.964;37.674;2023-06-05T04:59:56;99889.78;;;12.08;73.01
69622;BME280;56841;55.964;37.674;2023-06-05T05:02:26;99899.59;;;11.91;72.49
69622;BME280;56841;55.964;37.674;2023-06-05T05:04:52;99898.94;;;11.89;72.96
69622;BME280;56841;55.964;37.674;2023-06-05T05:07:18;99895.47;;;11.89;72.85
69622;BME280;56841;55.964;37.674;2023-06-05T05:09:45;99894.16;;;11.84;72.99
69622;BME280;56841;55.964;37.674;2023-06-05T05:12:12;99897.09;;;11.81;73.69
69622;BME280;56841;55.964;37.674;2023-06-05T05:14:38;99895.78;;;11.85;74.29
69622;BME280;56841;55.964;37.674;2023-06-05T05:17:05;99892.47;;;11.83;73.54
69622;BME280;56841;55.964;37.674;2023-06-05T05:19:31;99890.50;;;11.85;73.92
69622;BME280;56841;55.964;37.674;2023-06-05T05:21:59;99894.13;;;11.93;74.20
69622;BME280;56841;55.964;37.674;2023-06-05T05:24:25;99896.38;;;12.12;73.17
69622;BME280;56841;55.964;37.674;2023-06-05T05:26:51;99901.97;;;12.25;72.54
69622;BME280;56841;55.964;37.674;2023-06-05T05:29:18;99895.06;;;12.47;72.16
69622;BME280;56841;55.964;37.674;2023-06-05T05:31:44;99891.72;;;12.62;71.81
69622;BME280;56841;55.964;37.674;2023-06-05T05:34:11;99888.75;;;12.56;71.54
69622;BME280;56841;55.964;37.674;2023-06-05T05:36:37;99903.03;;;12.47;72.07
69622;BME280;56841;55.964;37.674;2023-06-05T05:39:06;99897.38;;;12.50;73.25
69622;BME280;56841;55.964;37.674;2023-06-05T05:41:33;99901.09;;;12.41;73.18
69622;BME280;56841;55.964;37.674;2023-06-05T05:43:59;99904.78;;;12.63;72.53
69622;BME280;56841;55.964;37.674;2023-06-05T05:46:25;99904.78;;;12.63;71.05
69622;BME280;56841;55.964;37.674;2023-06-05T05:48:50;99906.47;;;12.56;71.16
69622;BME280;56841;55.964;37.674;2023-06-05T05:51:16;99901.66;;;12.60;72.57
69622;BME280;56841;55.964;37.674;2023-06-05T05:53:42;99903.25;;;12.38;72.60
69622;BME280;56841;55.964;37.674;2023-06-05T05:56:12;99904.22;;;12.37;72.76
69622;BME280;56841;55.964;37.674;2023-06-05T05:58:38;99912.84;;;12.30;73.35
69622;BME280;56841;55.964;37.674;2023-06-05T06:01:04;99912.38;;;12.35;72.47
69622;BME280;56841;55.964;37.674;2023-06-05T06:03:29;99912.31;;;12.43;72.85
69622;BME280;56841;55.964;37.674;2023-06-05T06:05:55;99906.06;;;12.67;72.14
69622;BME280;56841;55.964;37.674;2023-06-05T06:08:22;99897.38;;;12.81;70.96
69622;BME280;56841;55.964;37.674;2023-06-05T06:10:48;99888.78;;;12.79;70.83
69622;BME280;56841;55.964;37.674;2023-06-05T06:13:14;99895.38;;;12.84;70.95
69622;BME280;56841;55.964;37.674;2023-06-05T06:15:41;99899.53;;;12.78;71.31
69622;BME280;56841;55.964;37.674;2023-06-05T06:18:06;99904.16;;;12.53;72.21
69622;BME280;56841;55.964;37.674;2023-06-05T06:20:32;99903.16;;;12.54;72.47
69622;BME280;56841;55.964;37.674;2023-06-05T06:23:01;99902.34;;;12.53;72.89
69622;BME280;56841;55.964;37.674;2023-06-05T06:25:28;99904.03;;;12.46;73.36
69622;BME280;56841;55.964;37.674;2023-06-05T06:27:59;99898.44;;;12.72;72.58
69622;BME280;56841;55.964;37.674;2023-06-05T06:30:26;99900.69;;;12.84;71.84
69622;BME280;56841;55.964;37.674;2023-06-05T06:32:53;99891.25;;;12.81;71.88
69622;BME280;56841;55.964;37.674;2023-06-05T06:35:24;99892.53;;;12.85;71.22
69622;BME280;56841;55.964;37.674;2023-06-05T06:37:52;99890.31;;;12.74;71.60
69622;BME280;56841;55.964;37.674;2023-06-05T06:40:19;99894.53;;;12.60;71.64
69622;BME280;56841;55.964;37.674;2023-06-05T06:42:45;99890.25;;;12.51;70.73
69622;BME280;56841;55.964;37.674;2023-06-05T06:45:20;99885.63;;;12.53;71.25
69622;BME280;56841;55.964;37.674;2023-06-05T06:47:46;99887.94;;;12.56;70.89
69622;BME280;56841;55.964;37.674;2023-06-05T06:50:12;99892.34;;;12.64;70.18
69622;BME280;56841;55.964;37.674;2023-06-05T06:52:39;99882.06;;;12.92;69.94
69622;BME280;56841;55.964;37.674;2023-06-05T06:55:05;99882.91;;;13.15;69.86
69622;BME280;56841;55.964;37.674;2023-06-05T06:57:31;99880.97;;;13.32;68.36
69622;BME280;56841;55.964;37.674;2023-06-05T06:59:57;99880.63;;;13.50;67.49
69622;BME280;56841;55.964;37.674;2023-06-05T07:02:24;99883.09;;;13.37;68.20
69622;BME280;56841;55.964;37.674;2023-06-05T07:04:51;99881.03;;;13.47;68.07
69622;BME280;56841;55.964;37.674;2023-06-05T07:07:19;99885.78;;;13.66;67.19
69622;BME280;56841;55.964;37.674;2023-06-05T07:09:49;99874.94;;;13.76;65.90
69622;BME280;56841;55.964;37.674;2023-06-05T07:12:17;99864.50;;;13.89;65.65
69622;BME280;56841;55.964;37.674;2023-06-05T07:14:44;99876.84;;;13.97;65.35
69622;BME280;56841;55.964;37.674;2023-06-05T07:17:10;99867.22;;;14.11;64.90
69622;BME280;56841;55.964;37.674;2023-06-05T07:19:37;99876.66;;;13.84;65.13
69622;BME280;56841;55.964;37.674;2023-06-05T07:22:03;99868.44;;;13.93;64.90
69622;BME280;56841;55.964;37.674;2023-06-05T07:24:30;99868.50;;;14.15;64.90
69622;BME280;56841;55.964;37.674;2023-06-05T07:26:57;99873.53;;;14.25;64.60
69622;BME280;56841;55.964;37.674;2023-06-05T07:29:23;99859.59;;;14.52;64.49
69622;BME280;56841;55.964;37.674;2023-06-05T07:31:50;99863.78;;;14.61;62.78
69622;BME280;56841;55.964;37.674;2023-06-05T07:34:20;99857.75;;;14.89;62.02
69622;BME280;56841;55.964;37.674;2023-06-05T07:36:47;99857.50;;;15.05;62.73
69622;BME280;56841;55.964;37.674;2023-06-05T07:39:14;99861.38;;;15.31;62.05
69622;BME280;56841;55.964;37.674;2023-06-05T07:41:40;99857.31;;;15.35;60.27
69622;BME280;56841;55.964;37.674;2023-06-05T07:44:08;99866.09;;;14.86;60.68
69622;BME280;56841;55.964;37.674;2023-06-05T07:46:34;99866.31;;;14.69;61.28
69622;BME280;56841;55.964;37.674;2023-06-05T07:49:00;99863.94;;;14.96;61.02
69622;BME280;56841;55.964;37.674;2023-06-05T07:51:26;99852.28;;;14.97;60.92
69622;BME280;56841;55.964;37.674;2023-06-05T07:53:51;99856.78;;;15.18;60.97
69622;BME280;56841;55.964;37.674;2023-06-05T07:56:17;99856.66;;;15.26;59.60
69622;BME280;56841;55.964;37.674;2023-06-05T07:58:43;99853.72;;;15.43;59.79
69622;BME280;56841;55.964;37.674;2023-06-05T08:01:10;99851.09;;;15.49;59.24
69622;BME280;56841;55.964;37.674;2023-06-05T08:03:37;99843.94;;;15.50;58.23
69622;BME280;56841;55.964;37.674;2023-06-05T08:06:03;99854.44;;;15.30;58.67
69622;BME280;56841;55.964;37.674;2023-06-05T08:08:28;99856.88;;;15.31;58.91
69622;BME280;56841;55.964;37.674;2023-06-05T08:10:55;99846.28;;;15.38;58.75
69622;BME280;56841;55.964;37.674;2023-06-05T08:13:21;99853.75;;;15.49;57.71
69622;BME280;56841;55.964;37.674;2023-06-05T08:15:46;99852.41;;;15.60;56.41
69622;BME280;56841;55.964;37.674;2023-06-05T08:18:12;99843.91;;;15.71;56.50
69622;BME280;56841;55.964;37.674;2023-06-05T08:20:39;99849.13;;;15.93;56.32
69622;BME280;56841;55.964;37.674;2023-06-05T08:23:05;99842.78;;;15.87;54.85
69622;BME280;56841;55.964;37.674;2023-06-05T08:25:31;99841.84;;;15.67;56.31
69622;BME280;56841;55.964;37.674;2023-06-05T08:27:56;99840.16;;;15.94;54.77
69622;BME280;56841;55.964;37.674;2023-06-05T08:30:22;99837.94;;;16.04;55.52
69622;BME280;56841;55.964;37.674;2023-06-05T08:32:48;99838.22;;;15.81;56.19
69622;BME280;56841;55.964;37.674;2023-06-05T08:35:13;99838.34;;;16.01;56.36
69622;BME280;56841;55.964;37.674;2023-06-05T08:37:42;99834.56;;;16.30;55.85
69622;BME280;56841;55.964;37.674;2023-06-05T08:40:07;99820.25;;;16.38;55.44
69622;BME280;56841;55.964;37.674;2023-06-05T08:42:40;99813.88;;;16.32;54.09
69622;BME280;56841;55.964;37.674;2023-06-05T08:45:07;99825.22;;;16.61;53.83
69622;BME280;56841;55.964;37.674;2023-06-05T08:47:36;99825.84;;;16.63;53.02
69622;BME280;56841;55.964;37.674;2023-06-05T08:50:05;99816.66;;;16.72;52.41
69622;BME280;56841;55.964;37.674;2023-06-05T08:52:38;99815.44;;;16.81;52.56
69622;BME280;56841;55.964;37.674;2023-06-05T08:55:05;99816.03;;;16.70;53.01
69622;BME280;56841;55.964;37.674;2023-06-05T08:57:34;99823.50;;;16.33;52.18
69622;BME280;56841;55.964;37.674;2023-06-05T09:00:03;99834.06;;;16.13;51.59
69622;BME280;56841;55.964;37.674;2023-06-05T09:02:41;99824.25;;;16.14;51.26
69622;BME280;56841;55.964;37.674;2023-06-05T09:05:15;99838.19;;;15.74;55.09
69622;BME280;56841;55.964;37.674;2023-06-05T09:07:41;99843.47;;;14.54;57.74
69622;BME280;56841;55.964;37.674;2023-06-05T09:10:25;99840.78;;;13.73;66.95
69622;BME280;56841;55.964;37.674;2023-06-05T09:12:52;99834.56;;;13.51;66.57
69622;BME280;56841;55.964;37.674;2023-06-05T09:15:32;99830.34;;;13.57;72.18
69622;BME280;56841;55.964;37.674;2023-06-05T09:20:39;99828.44;;;13.80;72.92
69622;BME280;56841;55.964;37.674;2023-06-05T09:23:26;99821.84;;;14.06;71.26
69622;BME280;56841;55.964;37.674;2023-06-05T09:25:53;99817.75;;;14.39;72.05
69622;BME280;56841;55.964;37.674;2023-06-05T09:28:20;99812.28;;;14.62;68.13
69622;BME280;56841;55.964;37.674;2023-06-05T09:31:02;99819.00;;;15.01;67.65
69622;BME280;56841;55.964;37.674;2023-06-05T09:33:32;99820.72;;;15.37;66.31
69622;BME280;56841;55.964;37.674;2023-06-05T09:38:32;99815.13;;;15.88;62.35
69622;BME280;56841;55.964;37.674;2023-06-05T09:41:09;99813.81;;;16.19;62.81
69622;BME280;56841;55.964;37.674;2023-06-05T09:43:36;99801.97;;;15.80;56.95
69622;BME280;56841;55.964;37.674;2023-06-05T09:46:12;99803.16;;;15.71;57.42
69622;BME280;56841;55.964;37.674;2023-06-05T09:48:39;99813.94;;;15.62;57.08
69622;BME280;56841;55.964;37.674;2023-06-05T09:51:08;99821.16;;;15.40;57.52
69622;BME280;56841;55.964;37.674;2023-06-05T09:53:37;99832.09;;;15.03;60.56
69622;BME280;56841;55.964;37.674;2023-06-05T09:56:09;99820.81;;;14.07;74.54
69622;BME280;56841;55.964;37.674;2023-06-05T09:58:37;99833.28;;;13.62;73.83
69622;BME280;56841;55.964;37.674;2023-06-05T10:01:05;99828.44;;;13.65;73.27
69622;BME280;56841;55.964;37.674;2023-06-05T10:03:34;99838.22;;;13.65;70.34
69622;BME280;56841;55.964;37.674;2023-06-05T10:06:04;99848.38;;;13.61;69.79
69622;BME280;56841;55.964;37.674;2023-06-05T10:08:31;99863.94;;;13.64;69.75
69622;BME280;56841;55.964;37.674;2023-06-05T10:10:57;99885.41;;;12.31;100.00
69622;BME280;56841;55.964;37.674;2023-06-05T10:13:23;99901.41;;;11.74;100.00
69622;BME280;56841;55.964;37.674;2023-06-05T10:15:52;99887.75;;;11.46;100.00
69622;BME280;56841;55.964;37.674;2023-06-05T10:18:19;99889.34;;;11.55;100.00
69622;BME280;56841;55.964;37.674;2023-06-05T10:20:46;99881.44;;;11.47;100.00
69622;BME280;56841;55.964;37.674;2023-06-05T10:23:17;99886.72;;;11.31;100.00
69622;BME280;56841;55.964;37.674;2023-06-05T10:25:45;99875.31;;;11.55;100.00
69622;BME280;56841;55.964;37.674;2023-06-05T10:28:29;99875.63;;;11.76;100.00
69622;BME280;56841;55.964;37.674;2023-06-05T10:31:32;99871.63;;;11.97;100.00
69622;BME280;56841;55.964;37.674;2023-06-05T10:34:14;99867.31;;;12.04;90.84
69622;BME280;56841;55.964;37.674;2023-06-05T10:37:13;99858.59;;;12.35;92.63
69622;BME280;56841;55.964;37.674;2023-06-05T10:39:49;99841.84;;;12.65;84.08
69622;BME280;56841;55.964;37.674;2023-06-05T10:42:25;99845.63;;;12.94;76.89
69622;BME280;56841;55.964;37.674;2023-06-05T10:44:52;99839.25;;;13.26;81.33
69622;BME280;56841;55.964;37.674;2023-06-05T10:52:51;99831.41;;;14.21;76.77
69622;BME280;56841;55.964;37.674;2023-06-05T10:55:20;99838.28;;;14.31;70.54
69622;BME280;56841;55.964;37.674;2023-06-05T11:00:27;99830.41;;;14.74;68.22
69622;BME280;56841;55.964;37.674;2023-06-05T11:02:53;99824.06;;;14.96;66.01
69622;BME280;56841;55.964;37.674;2023-06-05T11:05:19;99819.63;;;15.25;67.63
69622;BME280;56841;55.964;37.674;2023-06-05T11:07:45;99816.72;;;15.54;66.41
69622;BME280;56841;55.964;37.674;2023-06-05T11:10:16;99804.31;;;16.03;66.60
69622;BME280;56841;55.964;37.674;2023-06-05T11:15:11;99805.19;;;16.17;59.04
69622;BME280;56841;55.964;37.674;2023-06-05T11:17:42;99802.72;;;16.08;58.41
69622;BME280;56841;55.964;37.674;2023-06-05T11:20:48;99797.31;;;16.56;52.31
69622;BME280;56841;55.964;37.674;2023-06-05T11:28:03;99781.41;;;18.84;49.05
69622;BME280;56841;55.964;37.674;2023-06-05T11:30:44;99783.78;;;20.16;45.66
69622;BME280;56841;55.964;37.674;2023-06-05T11:33:15;99779.75;;;19.77;42.78
69622;BME280;56841;55.964;37.674;2023-06-05T11:35:42;99785.00;;;19.65;42.27
69622;BME280;56841;55.964;37.674;2023-06-05T11:40:37;99765.63;;;20.48;40.51
69622;BME280;56841;55.964;37.674;2023-06-05T11:43:04;99770.34;;;20.04;40.74
69622;BME280;56841;55.964;37.674;2023-06-05T11:45:32;99779.88;;;19.82;39.65
69622;BME280;56841;55.964;37.674;2023-06-05T11:48:09;99784.22;;;18.58;42.29
69622;BME280;56841;55.964;37.674;2023-06-05T11:50:37;99792.47;;;18.11;43.86
69622;BME280;56841;55.964;37.674;2023-06-05T11:53:06;99781.19;;;18.16;44.70
69622;BME280;56841;55.964;37.674;2023-06-05T11:55:32;99794.88;;;17.68;45.80
69622;BME280;56841;55.964;37.674;2023-06-05T11:58:28;99801.72;;;17.31;48.15
69622;BME280;56841;55.964;37.674;2023-06-05T12:01:23;99815.63;;;16.73;52.23
69622;BME280;56841;55.964;37.674;2023-06-05T12:04:04;99811.72;;;16.62;55.11
69622;BME280;56841;55.964;37.674;2023-06-05T12:06:30;99817.19;;;16.47;56.01
69622;BME280;56841;55.964;37.674;2023-06-05T12:09:12;99831.88;;;16.23;57.03
69622;BME280;56841;55.964;37.674;2023-06-05T12:11:39;99842.81;;;15.94;58.21
69622;BME280;56841;55.964;37.674;2023-06-05T12:14:06;99825.41;;;15.63;59.97
69622;BME280;56841;55.964;37.674;2023-06-05T12:16:39;99830.88;;;15.27;60.70
69622;BME280;56841;55.964;37.674;2023-06-05T12:19:16;99823.47;;;15.22;61.38
69622;BME280;56841;55.964;37.674;2023-06-05T12:21:44;99817.56;;;15.27;60.63
69622;BME280;56841;55.964;37.674;2023-06-05T12:24:10;99822.50;;;15.30;59.96
69622;BME280;56841;55.964;37.674;2023-06-05T12:26:54;99827.66;;;15.38;60.56
69622;BME280;56841;55.964;37.674;2023-06-05T12:29:27;99826.69;;;15.17;58.31
69622;BME280;56841;55.964;37.674;2023-06-05T12:31:58;99825.22;;;15.36;58.63
69622;BME280;56841;55.964;37.674;2023-06-05T12:34:43;99822.28;;;15.31;58.61
69622;BME280;56841;55.964;37.674;2023-06-05T12:37:29;99831.53;;;15.63;58.45
69622;BME280;56841;55.964;37.674;2023-06-05T12:40:01;99825.78;;;15.60;56.97
69622;BME280;56841;55.964;37.674;2023-06-05T12:42:33;99822.13;;;15.96;54.84
69622;BME280;56841;55.964;37.674;2023-06-05T12:45:00;99814.63;;;16.87;52.74
69622;BME280;56841;55.964;37.674;2023-06-05T12:47:26;99809.91;;;18.20;49.65
69622;BME280;56841;55.964;37.674;2023-06-05T12:49:51;99809.22;;;19.52;46.91
69622;BME280;56841;55.964;37.674;2023-06-05T12:52:20;99799.00;;;20.04;45.29
69622;BME280;56841;55.964;37.674;2023-06-05T12:54:54;99799.50;;;20.61;43.62
69622;BME280;56841;55.964;37.674;2023-06-05T12:57:20;99791.94;;;21.35;41.79
69622;BME280;56841;55.964;37.674;2023-06-05T12:59:47;99788.25;;;21.88;40.73
69622;BME280;56841;55.964;37.674;2023-06-05T13:02:13;99797.19;;;21.42;41.02
69622;BME280;56841;55.964;37.674;2023-06-05T13:04:39;99786.53;;;21.82;40.62
69622;BME280;56841;55.964;37.674;2023-06-05T13:07:05;99793.22;;;22.08;38.79
69622;BME280;56841;55.964;37.674;2023-06-05T13:09:32;99785.25;;;22.13;38.29
69622;BME280;56841;55.964;37.674;2023-06-05T13:11:58;99780.34;;;22.10;37.56
69622;BME280;56841;55.964;37.674;2023-06-05T13:14:27;99787.75;;;21.51;38.19
69622;BME280;56841;55.964;37.674;2023-06-05T13:16:53;99787.13;;;22.24;36.70
69622;BME280;56841;55.964;37.674;2023-06-05T13:19:19;99787.84;;;22.20;36.96
69622;BME280;56841;55.964;37.674;2023-06-05T13:21:46;99781.88;;;22.46;36.14
69622;BME280;56841;55.964;37.674;2023-06-05T13:24:12;99782.03;;;23.19;35.83